createdAt,value
2023-02-23T00:02:20.321Z,37.40
2023-02-23T00:07:24.719Z,36.00
2023-02-23T00:12:27.594Z,36.40
2023-02-23T00:17:31.549Z,38.20
2023-02-23T00:22:36.035Z,34.20
2023-02-23T00:27:44.218Z,36.00
2023-02-23T00:32:47.537Z,33.80
2023-02-23T00:37:51.727Z,36.20
2023-02-23T00:42:55.272Z,34.60
2023-02-23T00:47:58.066Z,34.40
2023-02-23T00:53:02.178Z,35.00
2023-02-23T00:58:04.935Z,34.00
2023-02-23T01:03:07.914Z,33.80
2023-02-23T01:08:12.067Z,33.00
2023-02-23T01:13:15.114Z,35.20
2023-02-23T01:18:19.893Z,36.20
2023-02-23T01:23:24.076Z,35.80
2023-02-23T01:28:26.856Z,35.20
2023-02-23T01:33:29.779Z,34.60
2023-02-23T01:38:34.841Z,33.00
2023-02-23T01:43:56.619Z,32.40
2023-02-23T01:48:59.857Z,32.20
2023-02-23T01:54:10.930Z,33.20
2023-02-23T01:59:15.663Z,33.40
2023-02-23T02:04:19.744Z,31.80
2023-02-23T02:09:28.236Z,30.00
2023-02-23T02:14:33.303Z,30.20
2023-02-23T02:20:12.933Z,29.40
2023-02-23T02:25:42.505Z,31.60
2023-02-23T02:31:09.097Z,29.00
2023-02-23T02:36:38.613Z,29.80
2023-02-23T02:41:51.294Z,29.20
2023-02-23T02:47:00.908Z,28.00
2023-02-23T02:52:13.065Z,28.80
2023-02-23T02:57:20.893Z,28.80
2023-02-23T03:02:42.144Z,29.40
2023-02-23T03:08:12.159Z,28.00
2023-02-23T03:13:44.403Z,27.20
2023-02-23T03:19:17.380Z,29.00
2023-02-23T03:24:48.076Z,29.80
2023-02-23T03:30:20.396Z,28.00
2023-02-23T03:35:48.323Z,27.60
2023-02-23T03:41:13.651Z,28.00
2023-02-23T03:46:38.525Z,27.00
2023-02-23T03:52:01.651Z,28.20
2023-02-23T03:57:25.801Z,25.20
2023-02-23T04:02:51.685Z,25.40
2023-02-23T04:08:13.441Z,29.20
2023-02-23T04:13:21.267Z,27.00
2023-02-23T04:18:29.308Z,28.80
2023-02-23T04:23:32.398Z,24.80
2023-02-23T04:28:35.265Z,20.00
2023-02-23T04:33:39.625Z,24.20
2023-02-23T04:38:42.450Z,26.00
2023-02-23T04:43:45.276Z,26.60
2023-02-23T04:48:49.387Z,24.20
2023-02-23T04:53:52.182Z,22.00
2023-02-23T04:58:55.105Z,24.40
2023-02-23T05:04:00.246Z,25.40
2023-02-23T05:09:03.924Z,20.00
2023-02-23T05:14:06.839Z,24.20
2023-02-23T05:19:10.916Z,24.80
2023-02-23T05:24:13.722Z,22.00
2023-02-23T05:29:16.597Z,23.60
2023-02-23T05:34:20.805Z,22.20
2023-02-23T05:39:23.796Z,21.25
2023-02-23T05:44:26.949Z,23.20
2023-02-23T05:49:31.607Z,22.40
2023-02-23T05:54:34.375Z,21.20
2023-02-23T05:59:37.145Z,23.75
2023-02-23T06:04:41.968Z,22.00
2023-02-23T06:09:44.768Z,20.40
2023-02-23T06:14:47.571Z,21.80
2023-02-23T06:19:52.015Z,20.25
2023-02-23T06:24:54.822Z,16.50
2023-02-23T06:29:57.564Z,19.25
2023-02-23T06:35:01.688Z,17.25
2023-02-23T06:40:05.943Z,19.50
2023-02-23T06:45:09.604Z,19.25
2023-02-23T06:50:14.875Z,17.50
2023-02-23T06:55:17.848Z,18.00
2023-02-23T07:00:21.516Z,20.25
2023-02-23T07:05:25.732Z,18.75
2023-02-23T07:10:28.478Z,20.25
2023-02-23T07:15:31.244Z,19.00
2023-02-23T07:20:36.316Z,20.25
2023-02-23T07:25:39.117Z,19.00
2023-02-23T07:30:41.987Z,18.75
2023-02-23T07:35:46.222Z,19.25
2023-02-23T07:40:50.975Z,18.50
2023-02-23T07:45:53.754Z,15.50
2023-02-23T07:50:57.915Z,27.80
2023-02-23T07:56:03.435Z,27.20
2023-02-23T08:01:07.073Z,24.60
2023-02-23T08:06:11.246Z,23.60
2023-02-23T08:11:14.306Z,24.40
2023-02-23T08:16:18.515Z,18.00
2023-02-23T08:21:22.655Z,19.25
2023-02-23T08:26:26.033Z,16.75
2023-02-23T08:31:28.947Z,15.00
2023-02-23T08:36:33.121Z,15.00
2023-02-23T08:41:36.064Z,11.00
2023-02-23T08:46:39.187Z,12.50
2023-02-23T08:51:43.328Z,13.50
2023-02-23T08:56:46.171Z,12.50
2023-02-23T09:01:48.966Z,9.75
2023-02-23T09:06:53.462Z,12.25
2023-02-23T09:11:57.205Z,11.50
2023-02-23T09:17:01.182Z,10.00
2023-02-23T09:22:05.305Z,9.25
2023-02-23T09:27:08.306Z,12.00
2023-02-23T09:32:12.030Z,12.25
2023-02-23T09:37:16.708Z,10.00
2023-02-23T09:42:35.228Z,10.75
2023-02-23T09:47:46.690Z,10.00
2023-02-23T09:52:58.725Z,12.00
2023-02-23T09:58:08.846Z,11.00
2023-02-23T10:03:21.236Z,10.50
2023-02-23T10:08:43.437Z,10.00
2023-02-23T10:13:58.331Z,9.00
2023-02-23T10:19:13.111Z,8.25
2023-02-23T10:24:22.862Z,8.00
2023-02-23T10:29:30.008Z,10.00
2023-02-23T10:34:33.244Z,11.00
2023-02-23T10:39:37.634Z,11.00
2023-02-23T10:44:41.757Z,8.00
2023-02-23T10:49:46.928Z,10.50
2023-02-23T10:54:52.547Z,8.75
2023-02-23T11:00:30.715Z,9.50
2023-02-23T11:05:37.831Z,9.75
2023-02-23T11:10:43.118Z,9.25
2023-02-23T11:15:51.019Z,9.00
2023-02-23T11:20:54.670Z,9.00
2023-02-23T11:26:01.177Z,8.25
2023-02-23T11:31:10.282Z,10.25
2023-02-23T11:36:19.390Z,8.75
2023-02-23T11:41:25.111Z,6.25
2023-02-23T11:46:30.500Z,11.75
2023-02-23T11:51:36.658Z,9.75
2023-02-23T11:56:40.820Z,6.75
2023-02-23T12:01:46.865Z,6.25
2023-02-23T12:06:50.724Z,7.50
2023-02-23T12:12:01.788Z,7.25
2023-02-23T12:17:09.597Z,6.00
2023-02-23T12:22:16.690Z,7.00
2023-02-23T12:27:27.592Z,4.75
2023-02-23T12:32:41.995Z,5.75
2023-02-23T12:37:48.756Z,8.75
2023-02-23T12:43:02.047Z,7.25
2023-02-23T12:48:13.603Z,6.00
2023-02-23T12:53:22.848Z,6.00
2023-02-23T12:58:35.811Z,8.50
2023-02-23T13:04:19.998Z,6.50
2023-02-23T13:09:37.762Z,7.00
2023-02-23T13:14:50.919Z,7.00
2023-02-23T13:19:58.757Z,6.25
2023-02-23T13:25:21.481Z,8.25
2023-02-23T13:30:25.748Z,7.00
2023-02-23T13:35:35.393Z,6.25
2023-02-23T13:40:43.641Z,5.75
2023-02-23T13:45:58.512Z,5.50
2023-02-23T13:51:07.579Z,7.50
2023-02-23T13:56:16.347Z,5.25
2023-02-23T14:01:23.830Z,6.50
2023-02-23T14:06:29.653Z,7.75
2023-02-23T14:11:48.620Z,7.00
2023-02-23T14:17:34.170Z,6.50
2023-02-23T14:22:37.771Z,6.50
2023-02-23T14:27:45.458Z,5.25
2023-02-23T14:32:51.045Z,7.00
2023-02-23T14:38:00.472Z,5.50
2023-02-23T14:43:05.054Z,6.00
2023-02-23T14:48:15.717Z,5.75
2023-02-23T14:53:22.467Z,6.50
2023-02-23T14:58:29.336Z,5.25
2023-02-23T15:03:33.544Z,6.25
2023-02-23T15:08:45.745Z,5.25
2023-02-23T15:13:51.130Z,4.50
2023-02-23T15:18:55.878Z,7.25
2023-02-23T15:24:07.668Z,7.00
2023-02-23T15:29:15.753Z,4.00
2023-02-23T15:34:22.060Z,6.75
2023-02-23T15:39:37.348Z,4.25
2023-02-23T15:44:44.972Z,4.50
2023-02-23T15:49:50.241Z,5.00
2023-02-23T15:55:00.013Z,6.00
2023-02-23T16:00:09.593Z,5.75
2023-02-23T16:05:23.545Z,7.00
2023-02-23T16:10:29.292Z,22.60
2023-02-23T16:15:36.657Z,49.80
2023-02-23T16:20:43.561Z,55.20
2023-02-23T16:25:47.130Z,53.20
2023-02-23T16:30:58.775Z,55.60
2023-02-23T16:36:16.345Z,52.60
2023-02-23T16:41:21.345Z,50.60
2023-02-23T16:46:27.216Z,54.60
2023-02-23T16:51:34.972Z,54.80
2023-02-23T16:56:40.696Z,53.20
2023-02-23T17:01:46.625Z,48.80
2023-02-23T17:06:55.631Z,50.60
2023-02-23T17:11:59.838Z,48.40
2023-02-23T17:17:04.485Z,48.00
2023-02-23T17:22:09.167Z,47.80
2023-02-23T17:27:12.478Z,47.60
2023-02-23T17:32:15.417Z,46.00
2023-02-23T17:37:20.387Z,45.60
2023-02-23T17:42:24.415Z,45.00
2023-02-23T17:47:27.240Z,46.00
2023-02-23T17:52:31.361Z,45.20
2023-02-23T17:57:34.208Z,45.20
2023-02-23T18:02:37.043Z,44.80
2023-02-23T18:07:41.366Z,44.00
2023-02-23T18:12:44.323Z,40.20
2023-02-23T18:17:47.400Z,40.40
2023-02-23T18:22:51.845Z,40.80
2023-02-23T18:27:55.564Z,37.00
2023-02-23T18:33:00.848Z,40.00
2023-02-23T18:38:06.376Z,35.40
2023-02-23T18:43:09.432Z,37.00
2023-02-23T18:48:13.533Z,35.80
2023-02-23T18:53:17.722Z,36.00
2023-02-23T18:58:20.601Z,32.20
2023-02-23T19:03:23.469Z,32.20
2023-02-23T19:08:30.818Z,32.80
2023-02-23T19:13:33.831Z,33.80
2023-02-23T19:18:37.073Z,31.00
2023-02-23T19:23:41.314Z,33.00
2023-02-23T19:28:44.232Z,32.40
2023-02-23T19:33:48.654Z,30.60
2023-02-23T19:38:52.823Z,31.80
2023-02-23T19:43:56.109Z,30.80
2023-02-23T19:48:59.028Z,31.00
2023-02-23T19:54:03.605Z,30.20
2023-02-23T19:59:07.083Z,28.60
2023-02-23T20:04:09.980Z,29.40
2023-02-23T20:09:15.298Z,31.00
2023-02-23T20:14:18.151Z,30.80
2023-02-23T20:19:21.735Z,28.20
2023-02-23T20:24:26.004Z,28.00
2023-02-23T20:29:28.799Z,29.40
2023-02-23T20:34:31.823Z,26.60
2023-02-23T20:39:35.976Z,26.20
2023-02-23T20:44:38.879Z,24.20
2023-02-23T20:49:42.206Z,24.20
2023-02-23T20:54:46.347Z,26.80
2023-02-23T20:59:49.718Z,26.40
2023-02-23T21:04:52.551Z,25.00
2023-02-23T21:10:00.892Z,22.20
2023-02-23T21:15:05.201Z,20.60
2023-02-23T21:20:10.935Z,22.80
2023-02-23T21:25:15.278Z,21.40
2023-02-23T21:30:20.679Z,20.80
2023-02-23T21:35:23.454Z,24.20
2023-02-23T21:40:27.862Z,19.75
2023-02-23T21:45:30.718Z,22.00
2023-02-23T21:50:33.718Z,22.00
2023-02-23T21:55:40.093Z,18.00
2023-02-23T22:00:44.544Z,21.00
2023-02-23T22:05:47.393Z,20.80
2023-02-23T22:10:51.503Z,17.50
2023-02-23T22:15:59.545Z,17.75
2023-02-23T22:21:04.526Z,19.00
2023-02-23T22:26:09.088Z,19.00
2023-02-23T22:31:14.937Z,20.25
2023-02-23T22:36:18.705Z,16.25
2023-02-23T22:41:23.287Z,17.00
2023-02-23T22:46:27.045Z,19.00
2023-02-23T22:51:30.180Z,17.25
2023-02-23T22:56:36.414Z,17.25
2023-02-23T23:01:39.955Z,18.00
2023-02-23T23:06:44.654Z,19.00
2023-02-23T23:11:51.495Z,18.25
2023-02-23T23:16:54.372Z,14.75
2023-02-23T23:22:00.536Z,16.75
2023-02-23T23:27:08.165Z,14.75
2023-02-23T23:32:11.041Z,16.00
2023-02-23T23:37:13.990Z,17.00
2023-02-23T23:42:18.151Z,17.75
2023-02-23T23:47:21.078Z,13.00
2023-02-23T23:52:25.132Z,15.25
2023-02-23T23:57:32.414Z,15.00
